CCA1304 RCTP-VHHH
Flight info
| Callsign | CCA1304 |
|---|---|
| Flight time | 1h 26m |
| Altitude | 32000 |
| Route | RCTP DCT CHALI T3 MKG A1 MAGOG V512 ABBEY DCT VHHH |
| Aircraft | A320/M-SDE2E3FGHIRWXY/LB1 |
Departure
| Time | 2026-05-06 13:25 |
|---|---|
| Airport | Taiwan Taoyuan International Airport (RCTP) |
Arrival
| Time | 2026-05-06 14:51 |
|---|---|
| Airport | Hong Kong International Airport (VHHH) |
| Time | Latitude | Longitude | Altitude | Speed | Heading |
|---|---|---|---|---|---|
| 2026-05-06 12:59 | 25.07738 | 121.23608 | 81 ft | 0 kts | 321° |
| 2026-05-06 13:12 | 25.07735 | 121.23610 | 81 ft | 2 kts | 321° |
| 2026-05-06 13:12 | 25.07722 | 121.23622 | 82 ft | 2 kts | 321° |
| 2026-05-06 13:12 | 25.07709 | 121.23634 | 86 ft | 2 kts | 321° |
| 2026-05-06 13:12 | 25.07696 | 121.23645 | 84 ft | 2 kts | 321° |
| 2026-05-06 13:13 | 25.07683 | 121.23658 | 84 ft | 3 kts | 295° |
| 2026-05-06 13:13 | 25.07678 | 121.23677 | 83 ft | 2 kts | 271° |
| 2026-05-06 13:13 | 25.07679 | 121.23696 | 82 ft | 3 kts | 267° |
| 2026-05-06 13:13 | 25.07679 | 121.23716 | 82 ft | 3 kts | 250° |
| 2026-05-06 13:14 | 25.07684 | 121.23728 | 83 ft | 0 kts | 229° |
| 2026-05-06 13:15 | 25.07678 | 121.23722 | 82 ft | 6 kts | 223° |
| 2026-05-06 13:15 | 25.07652 | 121.23701 | 82 ft | 0 kts | 216° |
| 2026-05-06 13:16 | 25.07650 | 121.23699 | 82 ft | 4 kts | 216° |
| 2026-05-06 13:16 | 25.07583 | 121.23706 | 84 ft | 17 kts | 142° |
| 2026-05-06 13:16 | 25.07482 | 121.23781 | 85 ft | 12 kts | 178° |
| 2026-05-06 13:17 | 25.07444 | 121.23761 | 86 ft | 9 kts | 217° |
| 2026-05-06 13:17 | 25.07375 | 121.23675 | 83 ft | 17 kts | 230° |
| 2026-05-06 13:17 | 25.07301 | 121.23582 | 84 ft | 15 kts | 231° |
| 2026-05-06 13:17 | 25.07235 | 121.23498 | 86 ft | 14 kts | 231° |
| 2026-05-06 13:18 | 25.07171 | 121.23418 | 84 ft | 18 kts | 228° |
| 2026-05-06 13:18 | 25.07058 | 121.23275 | 88 ft | 28 kts | 229° |
| 2026-05-06 13:18 | 25.06929 | 121.23111 | 86 ft | 29 kts | 230° |
| 2026-05-06 13:18 | 25.06790 | 121.22934 | 86 ft | 32 kts | 230° |
| 2026-05-06 13:19 | 25.06642 | 121.22747 | 84 ft | 33 kts | 230° |
| 2026-05-06 13:19 | 25.06504 | 121.22569 | 87 ft | 22 kts | 226° |
| 2026-05-06 13:19 | 25.06410 | 121.22454 | 84 ft | 19 kts | 227° |
| 2026-05-06 13:19 | 25.06387 | 121.22424 | 86 ft | 0 kts | 231° |
| 2026-05-06 13:20 | 25.06387 | 121.22423 | 86 ft | 2 kts | 231° |
| 2026-05-06 13:20 | 25.06355 | 121.22378 | 86 ft | 9 kts | 231° |
| 2026-05-06 13:20 | 25.06332 | 121.22348 | 84 ft | 0 kts | 229° |
| 2026-05-06 13:21 | 25.06306 | 121.22329 | 85 ft | 10 kts | 200° |
| 2026-05-06 13:21 | 25.06274 | 121.22299 | 87 ft | 6 kts | 245° |
| 2026-05-06 13:21 | 25.06245 | 121.22265 | 87 ft | 10 kts | 221° |
| 2026-05-06 13:22 | 25.06181 | 121.22276 | 88 ft | 0 kts | 143° |
| 2026-05-06 13:23 | 25.06159 | 121.22297 | 90 ft | 7 kts | 139° |
| 2026-05-06 13:24 | 25.06121 | 121.22377 | 98 ft | 16 kts | 83° |
| 2026-05-06 13:24 | 25.06163 | 121.22457 | 99 ft | 12 kts | 49° |
| 2026-05-06 13:24 | 25.06288 | 121.22612 | 99 ft | 58 kts | 49° |
| 2026-05-06 13:24 | 25.06724 | 121.23165 | 96 ft | 130 kts | 49° |
| 2026-05-06 13:25 | 25.07390 | 121.24011 | 538 ft | 149 kts | 49° |
| 2026-05-06 13:25 | 25.08067 | 121.24876 | 1308 ft | 148 kts | 52° |
| 2026-05-06 13:25 | 25.08738 | 121.25746 | 2038 ft | 153 kts | 52° |
| 2026-05-06 13:25 | 25.09464 | 121.26696 | 2370 ft | 173 kts | 52° |
| 2026-05-06 13:26 | 25.10291 | 121.27775 | 2646 ft | 195 kts | 52° |
| 2026-05-06 13:26 | 25.11222 | 121.28989 | 2934 ft | 219 kts | 51° |
| 2026-05-06 13:26 | 25.12341 | 121.30207 | 3420 ft | 238 kts | 30° |
| 2026-05-06 13:26 | 25.14003 | 121.30613 | 3811 ft | 260 kts | 351° |
| 2026-05-06 13:27 | 25.15660 | 121.29786 | 4429 ft | 268 kts | 315° |
| 2026-05-06 13:27 | 25.16907 | 121.28250 | 5294 ft | 270 kts | 308° |
| 2026-05-06 13:27 | 25.18136 | 121.26673 | 6206 ft | 272 kts | 308° |
| 2026-05-06 13:27 | 25.18959 | 121.25623 | 6781 ft | 274 kts | 308° |
| 2026-05-06 13:28 | 25.20651 | 121.23485 | 7894 ft | 278 kts | 308° |
| 2026-05-06 13:28 | 25.21937 | 121.21873 | 8736 ft | 282 kts | 309° |
| 2026-05-06 13:28 | 25.23241 | 121.20240 | 9565 ft | 285 kts | 309° |
| 2026-05-06 13:28 | 25.24113 | 121.19150 | 10090 ft | 287 kts | 309° |
| 2026-05-06 13:29 | 25.25478 | 121.17439 | 10431 ft | 308 kts | 309° |
| 2026-05-06 13:29 | 25.26778 | 121.15467 | 10630 ft | 328 kts | 293° |
| 2026-05-06 13:29 | 25.27322 | 121.12995 | 11042 ft | 337 kts | 270° |
| 2026-05-06 13:29 | 25.26904 | 121.10445 | 11625 ft | 343 kts | 247° |
| 2026-05-06 13:30 | 25.25591 | 121.08234 | 12243 ft | 349 kts | 230° |
| 2026-05-06 13:30 | 25.24002 | 121.06191 | 12879 ft | 353 kts | 230° |
| 2026-05-06 13:30 | 25.22373 | 121.04138 | 13475 ft | 358 kts | 229° |
| 2026-05-06 13:30 | 25.20713 | 121.02063 | 14017 ft | 363 kts | 229° |
| 2026-05-06 13:31 | 25.18971 | 121.00021 | 14569 ft | 366 kts | 226° |
| 2026-05-06 13:31 | 25.17148 | 120.98041 | 15136 ft | 369 kts | 225° |
| 2026-05-06 13:31 | 25.15279 | 120.96088 | 15695 ft | 372 kts | 225° |
| 2026-05-06 13:31 | 25.13384 | 120.94131 | 16237 ft | 375 kts | 225° |
| 2026-05-06 13:32 | 25.11482 | 120.92152 | 16791 ft | 378 kts | 225° |
| 2026-05-06 13:32 | 25.09578 | 120.90136 | 17305 ft | 381 kts | 226° |
| 2026-05-06 13:32 | 25.07673 | 120.88093 | 17838 ft | 383 kts | 226° |
| 2026-05-06 13:32 | 25.05761 | 120.86026 | 18357 ft | 386 kts | 226° |
| 2026-05-06 13:33 | 25.03835 | 120.83945 | 18830 ft | 389 kts | 226° |
| 2026-05-06 13:33 | 25.01897 | 120.81852 | 19314 ft | 391 kts | 226° |
| 2026-05-06 13:33 | 24.99948 | 120.79749 | 19812 ft | 393 kts | 226° |
| 2026-05-06 13:33 | 24.97988 | 120.77635 | 20303 ft | 395 kts | 226° |
| 2026-05-06 13:34 | 24.96016 | 120.75512 | 20809 ft | 398 kts | 226° |
| 2026-05-06 13:34 | 24.94031 | 120.73377 | 21307 ft | 400 kts | 225° |
| 2026-05-06 13:34 | 24.92035 | 120.71234 | 21795 ft | 402 kts | 225° |
| 2026-05-06 13:34 | 24.90026 | 120.69080 | 22284 ft | 404 kts | 225° |
| 2026-05-06 13:35 | 24.88007 | 120.66914 | 22755 ft | 406 kts | 225° |
| 2026-05-06 13:35 | 24.86005 | 120.64764 | 23216 ft | 408 kts | 225° |
| 2026-05-06 13:35 | 24.83966 | 120.62577 | 23658 ft | 410 kts | 225° |
| 2026-05-06 13:35 | 24.81917 | 120.60382 | 24026 ft | 412 kts | 225° |
| 2026-05-06 13:36 | 24.79856 | 120.58178 | 24404 ft | 414 kts | 225° |
| 2026-05-06 13:36 | 24.77788 | 120.55965 | 24763 ft | 416 kts | 225° |
| 2026-05-06 13:36 | 24.75709 | 120.53741 | 25116 ft | 418 kts | 225° |
| 2026-05-06 13:36 | 24.73615 | 120.51513 | 25471 ft | 420 kts | 224° |
| 2026-05-06 13:37 | 24.71301 | 120.49531 | 25790 ft | 424 kts | 217° |
| 2026-05-06 13:37 | 24.68868 | 120.47684 | 26121 ft | 426 kts | 217° |
| 2026-05-06 13:37 | 24.66423 | 120.45834 | 26449 ft | 428 kts | 217° |
| 2026-05-06 13:37 | 24.63963 | 120.43973 | 26771 ft | 430 kts | 217° |
| 2026-05-06 13:38 | 24.61492 | 120.42107 | 27093 ft | 432 kts | 217° |
| 2026-05-06 13:38 | 24.59008 | 120.40232 | 27404 ft | 434 kts | 217° |
| 2026-05-06 13:38 | 24.56514 | 120.38346 | 27710 ft | 436 kts | 217° |
| 2026-05-06 13:38 | 24.54007 | 120.36451 | 28012 ft | 438 kts | 217° |
| 2026-05-06 13:39 | 24.51488 | 120.34547 | 28300 ft | 441 kts | 217° |
| 2026-05-06 13:39 | 24.48957 | 120.32633 | 28586 ft | 443 kts | 217° |
| 2026-05-06 13:39 | 24.46415 | 120.30712 | 28859 ft | 445 kts | 217° |
| 2026-05-06 13:39 | 24.43862 | 120.28776 | 29129 ft | 447 kts | 217° |
| 2026-05-06 13:40 | 24.41312 | 120.26814 | 29389 ft | 449 kts | 218° |
| 2026-05-06 13:40 | 24.38764 | 120.24827 | 29649 ft | 451 kts | 218° |
| 2026-05-06 13:40 | 24.36208 | 120.22824 | 29896 ft | 452 kts | 218° |
| 2026-05-06 13:40 | 24.33643 | 120.20814 | 30125 ft | 454 kts | 218° |
| 2026-05-06 13:41 | 24.31064 | 120.18801 | 30321 ft | 456 kts | 218° |
| 2026-05-06 13:41 | 24.28472 | 120.16786 | 30504 ft | 458 kts | 218° |
| 2026-05-06 13:41 | 24.25908 | 120.14798 | 30748 ft | 458 kts | 218° |
| 2026-05-06 13:41 | 24.23309 | 120.12788 | 31025 ft | 457 kts | 218° |
| 2026-05-06 13:42 | 24.20712 | 120.10782 | 31298 ft | 457 kts | 218° |
| 2026-05-06 13:42 | 24.18116 | 120.08780 | 31568 ft | 456 kts | 218° |
| 2026-05-06 13:42 | 24.15522 | 120.06774 | 31842 ft | 456 kts | 218° |
| 2026-05-06 13:42 | 24.12928 | 120.04765 | 31965 ft | 456 kts | 218° |
| 2026-05-06 13:43 | 24.10358 | 120.02774 | 31992 ft | 451 kts | 218° |
| 2026-05-06 13:43 | 24.05252 | 119.98830 | 31994 ft | 448 kts | 218° |
| 2026-05-06 13:44 | 24.00154 | 119.94902 | 31995 ft | 448 kts | 218° |
| 2026-05-06 13:44 | 23.95058 | 119.90976 | 31996 ft | 448 kts | 218° |
| 2026-05-06 13:45 | 23.89957 | 119.87051 | 31987 ft | 448 kts | 218° |
| 2026-05-06 13:45 | 23.82302 | 119.81176 | 31986 ft | 448 kts | 218° |
| 2026-05-06 13:46 | 23.77200 | 119.77258 | 31994 ft | 448 kts | 218° |
| 2026-05-06 13:46 | 23.72099 | 119.73339 | 31993 ft | 448 kts | 218° |
| 2026-05-06 13:47 | 23.66994 | 119.69427 | 31996 ft | 449 kts | 218° |
| 2026-05-06 13:47 | 23.61898 | 119.65496 | 31992 ft | 448 kts | 221° |
| 2026-05-06 13:48 | 23.57719 | 119.60581 | 31994 ft | 440 kts | 239° |
| 2026-05-06 13:48 | 23.54467 | 119.54931 | 31992 ft | 440 kts | 240° |
| 2026-05-06 13:49 | 23.51199 | 119.49286 | 31991 ft | 440 kts | 240° |
| 2026-05-06 13:49 | 23.47921 | 119.43649 | 31989 ft | 441 kts | 240° |
| 2026-05-06 13:50 | 23.44636 | 119.38011 | 31986 ft | 441 kts | 240° |
| 2026-05-06 13:50 | 23.41353 | 119.32373 | 31986 ft | 441 kts | 240° |
| 2026-05-06 13:51 | 23.38068 | 119.26735 | 31984 ft | 441 kts | 240° |
| 2026-05-06 13:51 | 23.34784 | 119.21097 | 31988 ft | 441 kts | 240° |
| 2026-05-06 13:52 | 23.31498 | 119.15457 | 31992 ft | 441 kts | 239° |
| 2026-05-06 13:52 | 23.28226 | 119.09862 | 31996 ft | 441 kts | 239° |
| 2026-05-06 13:53 | 23.25014 | 119.04371 | 31992 ft | 441 kts | 239° |
| 2026-05-06 13:53 | 23.21721 | 118.98742 | 31997 ft | 441 kts | 239° |
| 2026-05-06 13:54 | 23.18426 | 118.93115 | 31995 ft | 441 kts | 239° |
| 2026-05-06 13:54 | 23.15131 | 118.87490 | 31995 ft | 441 kts | 239° |
| 2026-05-06 13:55 | 23.11833 | 118.81870 | 31996 ft | 441 kts | 239° |
| 2026-05-06 13:55 | 23.08531 | 118.76257 | 31997 ft | 441 kts | 239° |
| 2026-05-06 13:56 | 23.05228 | 118.70647 | 31994 ft | 441 kts | 239° |
| 2026-05-06 13:56 | 23.01920 | 118.65041 | 31995 ft | 441 kts | 239° |
| 2026-05-06 13:57 | 22.98611 | 118.59436 | 31993 ft | 441 kts | 239° |
| 2026-05-06 13:57 | 22.95307 | 118.53832 | 31993 ft | 441 kts | 239° |
| 2026-05-06 13:58 | 22.92045 | 118.48333 | 31990 ft | 441 kts | 239° |
| 2026-05-06 13:58 | 22.88716 | 118.42752 | 31989 ft | 441 kts | 239° |
| 2026-05-06 13:59 | 22.85389 | 118.37171 | 31988 ft | 440 kts | 239° |
| 2026-05-06 13:59 | 22.82084 | 118.31633 | 31984 ft | 440 kts | 239° |
| 2026-05-06 14:00 | 22.78748 | 118.26064 | 31987 ft | 441 kts | 239° |
| 2026-05-06 14:00 | 22.75420 | 118.20487 | 31986 ft | 441 kts | 239° |
| 2026-05-06 14:01 | 22.72084 | 118.14911 | 31985 ft | 441 kts | 239° |
| 2026-05-06 14:01 | 22.68749 | 118.09334 | 31989 ft | 441 kts | 239° |
| 2026-05-06 14:02 | 22.65415 | 118.03757 | 31990 ft | 441 kts | 239° |
| 2026-05-06 14:02 | 22.62080 | 117.98208 | 31991 ft | 442 kts | 238° |
| 2026-05-06 14:03 | 22.58728 | 117.92631 | 31995 ft | 442 kts | 239° |
| 2026-05-06 14:03 | 22.55402 | 117.87036 | 31992 ft | 442 kts | 239° |
| 2026-05-06 14:04 | 22.52088 | 117.81432 | 31990 ft | 442 kts | 239° |
| 2026-05-06 14:04 | 22.48769 | 117.75835 | 31991 ft | 442 kts | 239° |
| 2026-05-06 14:05 | 22.45440 | 117.70251 | 31994 ft | 442 kts | 239° |
| 2026-05-06 14:05 | 22.42109 | 117.64671 | 31996 ft | 442 kts | 239° |
| 2026-05-06 14:06 | 22.38800 | 117.59134 | 31993 ft | 441 kts | 239° |
| 2026-05-06 14:06 | 22.35501 | 117.53544 | 31994 ft | 440 kts | 243° |
| 2026-05-06 14:07 | 22.33479 | 117.47370 | 31991 ft | 436 kts | 262° |
| 2026-05-06 14:07 | 22.33181 | 117.40856 | 31995 ft | 434 kts | 270° |
| 2026-05-06 14:08 | 22.33066 | 117.34333 | 31993 ft | 434 kts | 269° |
| 2026-05-06 14:08 | 22.32936 | 117.27813 | 31992 ft | 434 kts | 269° |
| 2026-05-06 14:09 | 22.32813 | 117.21296 | 31991 ft | 434 kts | 269° |
| 2026-05-06 14:09 | 22.32707 | 117.15390 | 31996 ft | 434 kts | 269° |
| 2026-05-06 14:10 | 22.32581 | 117.08875 | 31998 ft | 434 kts | 269° |
| 2026-05-06 14:10 | 22.32453 | 117.02365 | 32000 ft | 433 kts | 269° |
| 2026-05-06 14:11 | 22.32323 | 116.95860 | 32000 ft | 433 kts | 269° |
| 2026-05-06 14:11 | 22.32189 | 116.89360 | 32003 ft | 433 kts | 269° |
| 2026-05-06 14:12 | 22.32059 | 116.82862 | 32001 ft | 433 kts | 269° |
| 2026-05-06 14:12 | 22.31921 | 116.76367 | 32002 ft | 432 kts | 269° |
| 2026-05-06 14:13 | 22.31778 | 116.69875 | 31998 ft | 432 kts | 269° |
| 2026-05-06 14:13 | 22.31629 | 116.63429 | 31998 ft | 432 kts | 269° |
| 2026-05-06 14:14 | 22.31484 | 116.56941 | 31998 ft | 432 kts | 269° |
| 2026-05-06 14:14 | 22.31356 | 116.51501 | 31996 ft | 432 kts | 269° |
| 2026-05-06 14:15 | 22.31183 | 116.44083 | 31995 ft | 432 kts | 269° |
| 2026-05-06 14:15 | 22.31032 | 116.37590 | 31996 ft | 433 kts | 269° |
| 2026-05-06 14:16 | 22.30874 | 116.31095 | 31995 ft | 433 kts | 269° |
| 2026-05-06 14:16 | 22.30716 | 116.24601 | 31993 ft | 433 kts | 269° |
| 2026-05-06 14:17 | 22.30552 | 116.18103 | 31992 ft | 433 kts | 269° |
| 2026-05-06 14:17 | 22.30378 | 116.11607 | 31987 ft | 433 kts | 269° |
| 2026-05-06 14:18 | 22.30216 | 116.05106 | 31990 ft | 433 kts | 269° |
| 2026-05-06 14:18 | 22.30079 | 115.99705 | 31989 ft | 433 kts | 269° |
| 2026-05-06 14:19 | 22.29901 | 115.93203 | 31992 ft | 433 kts | 269° |
| 2026-05-06 14:19 | 22.29725 | 115.86696 | 31971 ft | 435 kts | 269° |
| 2026-05-06 14:20 | 22.29549 | 115.80142 | 31961 ft | 439 kts | 269° |
| 2026-05-06 14:20 | 22.29379 | 115.73923 | 31777 ft | 434 kts | 269° |
| 2026-05-06 14:21 | 22.29296 | 115.70799 | 31057 ft | 433 kts | 269° |
| 2026-05-06 14:21 | 22.29209 | 115.67543 | 30226 ft | 435 kts | 269° |
| 2026-05-06 14:21 | 22.29120 | 115.64277 | 29454 ft | 433 kts | 268° |
| 2026-05-06 14:21 | 22.29032 | 115.61045 | 28805 ft | 428 kts | 268° |
| 2026-05-06 14:22 | 22.28945 | 115.57847 | 28180 ft | 424 kts | 268° |
| 2026-05-06 14:22 | 22.28859 | 115.54686 | 27582 ft | 419 kts | 268° |
| 2026-05-06 14:22 | 22.28774 | 115.51560 | 26978 ft | 413 kts | 268° |
| 2026-05-06 14:22 | 22.28690 | 115.48498 | 26043 ft | 405 kts | 268° |
| 2026-05-06 14:23 | 22.28609 | 115.45554 | 25510 ft | 397 kts | 268° |
| 2026-05-06 14:23 | 22.28524 | 115.42600 | 25088 ft | 391 kts | 268° |
| 2026-05-06 14:23 | 22.28439 | 115.39742 | 24627 ft | 387 kts | 268° |
| 2026-05-06 14:23 | 22.28351 | 115.36795 | 24144 ft | 383 kts | 267° |
| 2026-05-06 14:24 | 22.28268 | 115.33943 | 23527 ft | 376 kts | 267° |
| 2026-05-06 14:24 | 22.28188 | 115.31136 | 22547 ft | 372 kts | 267° |
| 2026-05-06 14:24 | 22.28107 | 115.28357 | 21605 ft | 369 kts | 267° |
| 2026-05-06 14:24 | 22.28024 | 115.25602 | 20725 ft | 366 kts | 267° |
| 2026-05-06 14:25 | 22.27941 | 115.22865 | 19952 ft | 364 kts | 268° |
| 2026-05-06 14:25 | 22.27859 | 115.20146 | 19212 ft | 361 kts | 268° |
| 2026-05-06 14:25 | 22.27780 | 115.17619 | 18543 ft | 359 kts | 268° |
| 2026-05-06 14:25 | 22.27695 | 115.14936 | 17792 ft | 356 kts | 268° |
| 2026-05-06 14:26 | 22.27610 | 115.12275 | 17032 ft | 353 kts | 268° |
| 2026-05-06 14:26 | 22.27525 | 115.09641 | 16310 ft | 349 kts | 268° |
| 2026-05-06 14:26 | 22.27442 | 115.07034 | 15630 ft | 346 kts | 268° |
| 2026-05-06 14:26 | 22.27359 | 115.04455 | 14962 ft | 342 kts | 269° |
| 2026-05-06 14:27 | 22.27277 | 115.01903 | 14313 ft | 339 kts | 269° |
| 2026-05-06 14:27 | 22.27199 | 114.99373 | 13665 ft | 335 kts | 269° |
| 2026-05-06 14:27 | 22.27120 | 114.96863 | 13071 ft | 334 kts | 269° |
| 2026-05-06 14:27 | 22.27040 | 114.94367 | 12641 ft | 331 kts | 269° |
| 2026-05-06 14:28 | 22.26962 | 114.91894 | 12206 ft | 328 kts | 269° |
| 2026-05-06 14:28 | 22.26881 | 114.89443 | 11759 ft | 326 kts | 268° |
| 2026-05-06 14:28 | 22.26802 | 114.87111 | 11350 ft | 323 kts | 268° |
| 2026-05-06 14:28 | 22.26720 | 114.84644 | 11209 ft | 310 kts | 268° |
| 2026-05-06 14:29 | 22.26642 | 114.82368 | 11084 ft | 299 kts | 268° |
| 2026-05-06 14:29 | 22.26400 | 114.80181 | 10971 ft | 290 kts | 257° |
| 2026-05-06 14:29 | 22.25729 | 114.78140 | 10949 ft | 288 kts | 245° |
| 2026-05-06 14:29 | 22.24668 | 114.76317 | 10637 ft | 288 kts | 232° |
| 2026-05-06 14:30 | 22.23272 | 114.74770 | 10283 ft | 288 kts | 225° |
| 2026-05-06 14:30 | 22.21823 | 114.73289 | 9944 ft | 286 kts | 225° |
| 2026-05-06 14:30 | 22.20384 | 114.71819 | 9564 ft | 284 kts | 225° |
| 2026-05-06 14:30 | 22.18953 | 114.70355 | 9189 ft | 282 kts | 225° |
| 2026-05-06 14:31 | 22.17534 | 114.68903 | 9007 ft | 281 kts | 225° |
| 2026-05-06 14:31 | 22.16115 | 114.67449 | 9019 ft | 282 kts | 225° |
| 2026-05-06 14:31 | 22.14692 | 114.65992 | 9018 ft | 282 kts | 225° |
| 2026-05-06 14:31 | 22.13522 | 114.64790 | 9017 ft | 282 kts | 225° |
| 2026-05-06 14:32 | 22.12099 | 114.63327 | 9022 ft | 282 kts | 225° |
| 2026-05-06 14:32 | 22.10678 | 114.61866 | 9020 ft | 283 kts | 225° |
| 2026-05-06 14:32 | 22.09273 | 114.60422 | 9018 ft | 283 kts | 225° |
| 2026-05-06 14:32 | 22.07830 | 114.58943 | 9024 ft | 282 kts | 225° |
| 2026-05-06 14:33 | 22.06427 | 114.57504 | 9020 ft | 282 kts | 225° |
| 2026-05-06 14:33 | 22.05006 | 114.56049 | 9023 ft | 281 kts | 225° |
| 2026-05-06 14:33 | 22.03585 | 114.54596 | 9021 ft | 282 kts | 225° |
| 2026-05-06 14:33 | 22.02323 | 114.52993 | 9019 ft | 280 kts | 238° |
| 2026-05-06 14:34 | 22.01462 | 114.51119 | 9041 ft | 278 kts | 250° |
| 2026-05-06 14:34 | 22.00804 | 114.49156 | 9040 ft | 281 kts | 249° |
| 2026-05-06 14:34 | 22.00074 | 114.47191 | 9040 ft | 283 kts | 248° |
| 2026-05-06 14:34 | 21.99303 | 114.45230 | 9027 ft | 285 kts | 247° |
| 2026-05-06 14:35 | 21.98519 | 114.43262 | 9022 ft | 286 kts | 247° |
| 2026-05-06 14:35 | 21.97736 | 114.41285 | 9022 ft | 288 kts | 248° |
| 2026-05-06 14:35 | 21.96964 | 114.39311 | 9021 ft | 284 kts | 248° |
| 2026-05-06 14:35 | 21.96206 | 114.37360 | 9026 ft | 281 kts | 248° |
| 2026-05-06 14:36 | 21.95458 | 114.35431 | 9022 ft | 277 kts | 248° |
| 2026-05-06 14:36 | 21.94720 | 114.33524 | 9002 ft | 275 kts | 248° |
| 2026-05-06 14:36 | 21.93979 | 114.31596 | 8716 ft | 282 kts | 248° |
| 2026-05-06 14:36 | 21.93231 | 114.29640 | 8483 ft | 283 kts | 248° |
| 2026-05-06 14:37 | 21.92482 | 114.27682 | 8224 ft | 283 kts | 248° |
| 2026-05-06 14:37 | 21.91734 | 114.25737 | 8122 ft | 278 kts | 247° |
| 2026-05-06 14:37 | 21.90999 | 114.23823 | 8070 ft | 276 kts | 247° |
| 2026-05-06 14:37 | 21.90264 | 114.21918 | 8006 ft | 276 kts | 247° |
| 2026-05-06 14:38 | 21.89523 | 114.20014 | 7922 ft | 276 kts | 247° |
| 2026-05-06 14:38 | 21.89082 | 114.18044 | 7977 ft | 272 kts | 272° |
| 2026-05-06 14:38 | 21.89688 | 114.16127 | 8064 ft | 278 kts | 304° |
| 2026-05-06 14:38 | 21.90991 | 114.14534 | 8054 ft | 288 kts | 311° |
| 2026-05-06 14:39 | 21.92387 | 114.12942 | 7843 ft | 292 kts | 310° |
| 2026-05-06 14:39 | 21.93594 | 114.11238 | 7652 ft | 282 kts | 300° |
| 2026-05-06 14:39 | 21.94489 | 114.09408 | 7469 ft | 272 kts | 292° |
| 2026-05-06 14:39 | 21.95286 | 114.07556 | 7249 ft | 275 kts | 294° |
| 2026-05-06 14:40 | 21.96181 | 114.05704 | 7157 ft | 281 kts | 296° |
| 2026-05-06 14:40 | 21.97128 | 114.03857 | 7068 ft | 283 kts | 297° |
| 2026-05-06 14:40 | 21.98096 | 114.02008 | 7025 ft | 282 kts | 297° |
| 2026-05-06 14:40 | 21.99047 | 114.00193 | 7011 ft | 281 kts | 297° |
| 2026-05-06 14:41 | 21.99999 | 113.98362 | 6825 ft | 279 kts | 297° |
| 2026-05-06 14:41 | 22.00944 | 113.96539 | 6580 ft | 278 kts | 296° |
| 2026-05-06 14:41 | 22.01878 | 113.94729 | 6357 ft | 276 kts | 296° |
| 2026-05-06 14:41 | 22.02806 | 113.92921 | 6085 ft | 275 kts | 297° |
| 2026-05-06 14:42 | 22.03743 | 113.91123 | 6057 ft | 276 kts | 297° |
| 2026-05-06 14:42 | 22.04685 | 113.89324 | 5890 ft | 277 kts | 297° |
| 2026-05-06 14:42 | 22.05624 | 113.87516 | 5651 ft | 275 kts | 297° |
| 2026-05-06 14:42 | 22.06553 | 113.85729 | 5425 ft | 270 kts | 297° |
| 2026-05-06 14:43 | 22.07444 | 113.83986 | 5209 ft | 261 kts | 296° |
| 2026-05-06 14:43 | 22.08287 | 113.82309 | 5089 ft | 248 kts | 296° |
| 2026-05-06 14:43 | 22.09090 | 113.80722 | 4992 ft | 235 kts | 296° |
| 2026-05-06 14:43 | 22.09863 | 113.79208 | 4883 ft | 226 kts | 297° |
| 2026-05-06 14:44 | 22.10796 | 113.77898 | 4792 ft | 216 kts | 317° |
| 2026-05-06 14:44 | 22.11950 | 113.76982 | 4876 ft | 195 kts | 326° |
| 2026-05-06 14:44 | 22.13134 | 113.76316 | 4746 ft | 193 kts | 335° |
| 2026-05-06 14:45 | 22.15586 | 113.75122 | 4281 ft | 195 kts | 335° |
| 2026-05-06 14:45 | 22.16835 | 113.74499 | 4002 ft | 200 kts | 334° |
| 2026-05-06 14:45 | 22.18104 | 113.73852 | 3731 ft | 201 kts | 334° |
| 2026-05-06 14:45 | 22.19355 | 113.73224 | 3479 ft | 197 kts | 335° |
| 2026-05-06 14:46 | 22.20597 | 113.72614 | 3226 ft | 195 kts | 335° |
| 2026-05-06 14:46 | 22.21815 | 113.72015 | 3010 ft | 190 kts | 338° |
| 2026-05-06 14:46 | 22.23095 | 113.71766 | 2766 ft | 188 kts | 6° |
| 2026-05-06 14:46 | 22.24328 | 113.72173 | 2522 ft | 186 kts | 34° |
| 2026-05-06 14:47 | 22.25313 | 113.73054 | 2338 ft | 182 kts | 46° |
| 2026-05-06 14:47 | 22.26262 | 113.73954 | 2193 ft | 181 kts | 44° |
| 2026-05-06 14:47 | 22.27221 | 113.74825 | 2102 ft | 178 kts | 44° |
| 2026-05-06 14:47 | 22.28057 | 113.75767 | 2034 ft | 168 kts | 62° |
| 2026-05-06 14:48 | 22.28499 | 113.76868 | 1997 ft | 152 kts | 75° |
| 2026-05-06 14:48 | 22.28839 | 113.77936 | 1839 ft | 147 kts | 75° |
| 2026-05-06 14:48 | 22.29163 | 113.78937 | 1737 ft | 135 kts | 75° |
| 2026-05-06 14:48 | 22.29475 | 113.79893 | 1563 ft | 135 kts | 75° |
| 2026-05-06 14:49 | 22.29788 | 113.80855 | 1371 ft | 137 kts | 75° |
| 2026-05-06 14:49 | 22.30092 | 113.81823 | 1210 ft | 135 kts | 76° |
| 2026-05-06 14:49 | 22.30408 | 113.82799 | 1045 ft | 139 kts | 73° |
| 2026-05-06 14:49 | 22.30729 | 113.83778 | 875 ft | 137 kts | 73° |
| 2026-05-06 14:50 | 22.31033 | 113.84750 | 715 ft | 136 kts | 73° |
| 2026-05-06 14:50 | 22.31346 | 113.85710 | 552 ft | 134 kts | 72° |
| 2026-05-06 14:50 | 22.31647 | 113.86654 | 359 ft | 132 kts | 72° |
| 2026-05-06 14:50 | 22.31952 | 113.87589 | 203 ft | 133 kts | 72° |
| 2026-05-06 14:51 | 22.32257 | 113.88520 | 47 ft | 126 kts | 73° |
| 2026-05-06 14:51 | 22.32456 | 113.89134 | 35 ft | 53 kts | 70° |
| 2026-05-06 14:51 | 22.32560 | 113.89475 | 37 ft | 43 kts | 70° |
| 2026-05-06 14:51 | 22.32653 | 113.89758 | 38 ft | 37 kts | 71° |
| 2026-05-06 14:52 | 22.32704 | 113.89963 | 37 ft | 22 kts | 85° |
| 2026-05-06 14:52 | 22.32699 | 113.90099 | 37 ft | 0 kts | 99° |
| 2026-05-06 14:53 | 22.32696 | 113.90121 | 34 ft | 10 kts | 99° |
| 2026-05-06 14:53 | 22.32679 | 113.90229 | 38 ft | 19 kts | 99° |
| 2026-05-06 14:53 | 22.32677 | 113.90382 | 37 ft | 22 kts | 76° |
| 2026-05-06 14:54 | 22.32729 | 113.90539 | 37 ft | 23 kts | 71° |
| 2026-05-06 14:54 | 22.32781 | 113.90709 | 38 ft | 24 kts | 70° |
| 2026-05-06 14:54 | 22.32830 | 113.90858 | 38 ft | 14 kts | 72° |
| 2026-05-06 14:54 | 22.32863 | 113.90963 | 38 ft | 16 kts | 70° |
| 2026-05-06 14:55 | 22.32903 | 113.91083 | 38 ft | 18 kts | 70° |
| 2026-05-06 14:55 | 22.32947 | 113.91219 | 36 ft | 20 kts | 71° |
| 2026-05-06 14:55 | 22.32995 | 113.91366 | 38 ft | 13 kts | 70° |
| 2026-05-06 14:55 | 22.33028 | 113.91468 | 38 ft | 16 kts | 71° |
| 2026-05-06 14:56 | 22.33067 | 113.91588 | 37 ft | 18 kts | 71° |
| 2026-05-06 14:56 | 22.33109 | 113.91717 | 38 ft | 18 kts | 70° |
| 2026-05-06 14:56 | 22.33153 | 113.91854 | 37 ft | 20 kts | 71° |
| 2026-05-06 14:56 | 22.33197 | 113.91993 | 37 ft | 19 kts | 72° |
| 2026-05-06 14:57 | 22.33178 | 113.92106 | 37 ft | 13 kts | 178° |
| 2026-05-06 14:57 | 22.33134 | 113.92034 | 37 ft | 11 kts | 244° |
| 2026-05-06 14:57 | 22.33120 | 113.92002 | 37 ft | 0 kts | 244° |
| 2026-05-06 14:58 | 22.33107 | 113.91974 | 37 ft | 8 kts | 244° |
| 2026-05-06 14:58 | 22.33078 | 113.91909 | 37 ft | 11 kts | 244° |
| 2026-05-06 14:59 | 22.33046 | 113.91815 | 37 ft | 7 kts | 251° |
| 2026-05-06 14:59 | 22.33046 | 113.91814 | 37 ft | 0 kts | 251° |
| 2026-05-06 15:00 | 22.33022 | 113.91740 | 37 ft | 22 kts | 251° |
| 2026-05-06 15:00 | 22.32946 | 113.91511 | 37 ft | 41 kts | 250° |
| 2026-05-06 15:00 | 22.32834 | 113.91169 | 37 ft | 55 kts | 251° |
| 2026-05-06 15:00 | 22.32708 | 113.90773 | 38 ft | 55 kts | 250° |
| 2026-05-06 15:01 | 22.32599 | 113.90435 | 37 ft | 16 kts | 244° |
| 2026-05-06 15:01 | 22.32504 | 113.90414 | 37 ft | 18 kts | 166° |
| 2026-05-06 15:01 | 22.32366 | 113.90466 | 37 ft | 23 kts | 161° |
| 2026-05-06 15:01 | 22.32211 | 113.90525 | 37 ft | 25 kts | 162° |
| 2026-05-06 15:02 | 22.32037 | 113.90590 | 37 ft | 30 kts | 160° |
| 2026-05-06 15:02 | 22.31816 | 113.90674 | 37 ft | 35 kts | 160° |
| 2026-05-06 15:02 | 22.31614 | 113.90760 | 37 ft | 19 kts | 127° |
| 2026-05-06 15:02 | 22.31629 | 113.90889 | 37 ft | 19 kts | 69° |
| 2026-05-06 15:03 | 22.31683 | 113.91056 | 38 ft | 27 kts | 71° |
| 2026-05-06 15:03 | 22.31742 | 113.91237 | 38 ft | 10 kts | 69° |
| 2026-05-06 15:03 | 22.31743 | 113.91241 | 38 ft | 0 kts | 69° |
| 2026-05-06 15:03 | 22.31744 | 113.91242 | 38 ft | 1 kts | 69° |
| 2026-05-06 15:04 | 22.31752 | 113.91267 | 38 ft | 6 kts | 70° |
| 2026-05-06 15:04 | 22.31771 | 113.91326 | 37 ft | 10 kts | 71° |
| 2026-05-06 15:04 | 22.31778 | 113.91347 | 37 ft | 0 kts | 70° |
| 2026-05-06 15:06 | 22.31775 | 113.91364 | 37 ft | 5 kts | 108° |
| 2026-05-06 15:07 | 22.31726 | 113.91403 | 38 ft | 2 kts | 161° |
| 2026-05-06 15:08 | 22.31704 | 113.91411 | 37 ft | 10 kts | 161° |
| 2026-05-06 15:08 | 22.31600 | 113.91451 | 39 ft | 16 kts | 160° |
| 2026-05-06 15:08 | 22.31503 | 113.91487 | 38 ft | 3 kts | 162° |
| 2026-05-06 15:08 | 22.31491 | 113.91491 | 38 ft | 0 kts | 162° |
| 2026-05-06 15:09 | 22.31489 | 113.91492 | 38 ft | 0 kts | 162° |
| 2026-05-06 15:09 | 22.31485 | 113.91493 | 38 ft | 1 kts | 165° |
| 2026-05-06 15:09 | 22.31464 | 113.91488 | 36 ft | 5 kts | 204° |
| 2026-05-06 15:10 | 22.31448 | 113.91460 | 38 ft | 7 kts | 245° |
| 2026-05-06 15:10 | 22.31396 | 113.91427 | 37 ft | 8 kts | 175° |
| 2026-05-06 15:10 | 22.31369 | 113.91435 | 37 ft | 0 kts | 162° |
| 2026-05-06 15:11 | 22.31368 | 113.91435 | 37 ft | 2 kts | 162° |
| 2026-05-06 15:11 | 22.31337 | 113.91446 | 37 ft | 6 kts | 161° |
| 2026-05-06 15:12 | 22.31259 | 113.91476 | 37 ft | 16 kts | 161° |
| 2026-05-06 15:12 | 22.31159 | 113.91520 | 37 ft | 12 kts | 137° |
| 2026-05-06 15:12 | 22.31156 | 113.91605 | 35 ft | 13 kts | 69° |
| 2026-05-06 15:12 | 22.31165 | 113.91633 | 36 ft | 0 kts | 71° |